Time;durP1;ratioP1;P1;durP2;ratioP2;P2;SDS_P1;SDS_P2;PMS_P1;PMS_P2;Temp;Humidity;BMP_temperature;BMP_pressure;BME280_temperature;BME280_humidity;BME280_pressure;Samples;Min_cycle;Max_cycle;Signal;HPM_P1;HPM_P2
2023/07/09 14:28:36;;;;;;;1.40;1.30;;;;;;;30.82;19.82;99562.15;106186;1305;549332;-50
2023/07/09 14:31:02;;;;;;;2.50;1.00;;;;;;;30.60;19.88;99560.03;107284;1313;22514;-48
2023/07/09 14:33:27;;;;;;;2.20;1.20;;;;;;;30.46;20.41;99560.00;107260;1313;22330;-51
2023/07/09 14:35:52;;;;;;;4.20;1.10;;;;;;;30.46;20.57;99551.77;107282;1313;22465;-50
2023/07/09 14:38:25;;;;;;;1.70;1.30;;;;;;;30.47;20.85;99550.89;107303;1313;22260;-49
2023/07/09 14:40:53;;;;;;;2.50;1.40;;;;;;;30.50;20.84;99551.60;107140;1310;213788;-49
2023/07/09 14:43:20;;;;;;;3.00;1.10;;;;;;;30.55;20.83;99548.60;107533;1310;22334;-47
2023/07/09 14:45:45;;;;;;;1.10;1.10;;;;;;;30.65;21.20;99548.34;107510;1310;22987;-49
2023/07/09 14:48:19;;;;;;;1.00;0.90;;;;;;;30.56;20.85;99549.39;107503;1310;22236;-48
2023/07/09 14:50:45;;;;;;;2.20;1.10;;;;;;;30.59;20.81;99548.39;107511;1310;22537;-50
2023/07/09 14:53:15;;;;;;;2.20;1.10;;;;;;;30.58;20.90;99545.54;107529;1310;23052;-49
2023/07/09 14:55:41;;;;;;;1.80;1.00;;;;;;;30.60;20.89;99543.54;107532;1310;22216;-53
2023/07/09 14:58:18;;;;;;;1.20;1.10;;;;;;;30.60;20.74;99545.71;107538;1310;22294;-48
2023/07/09 15:00:46;;;;;;;1.20;1.10;;;;;;;30.57;21.30;99546.52;107541;1310;22927;-48
2023/07/09 15:03:17;;;;;;;3.30;0.80;;;;;;;30.61;21.52;99544.71;107519;1310;22550;-49
2023/07/09 15:05:43;;;;;;;1.40;1.30;;;;;;;30.61;21.79;99542.16;107530;1310;22236;-49
2023/07/09 15:08:22;;;;;;;0.90;0.80;;;;;;;30.69;21.71;99542.27;107541;1310;22525;-51
2023/07/09 15:10:49;;;;;;;2.30;1.30;;;;;;;30.72;21.58;99541.69;107539;1310;22312;-52
2023/07/09 15:13:25;;;;;;;;;;;;;;;30.63;21.34;99540.04;107556;1310;22466;-49
2023/07/09 15:15:50;;;;;;;4.70;1.10;;;;;;;30.60;21.65;99541.21;107539;1310;22456;-50
2023/07/09 15:18:17;;;;;;;1.40;1.10;;;;;;;30.61;21.69;99539.20;107530;1310;22544;-50
2023/07/09 15:20:51;;;;;;;1.80;1.30;;;;;;;30.58;21.51;99534.44;107567;1310;22253;-49
2023/07/09 15:23:18;;;;;;;2.30;1.20;;;;;;;30.58;21.42;99539.70;107552;1310;22925;-47
2023/07/09 15:25:43;;;;;;;2.30;1.20;;;;;;;30.47;21.49;99538.99;107546;1310;22431;-49
2023/07/09 15:28:12;;;;;;;1.40;1.20;;;;;;;30.27;21.49;99537.62;107543;1310;22394;-50
2023/07/09 15:30:38;;;;;;;1.90;1.20;;;;;;;30.21;21.89;99537.32;107550;1310;22514;-47
2023/07/09 15:33:04;;;;;;;1.20;1.10;;;;;;;30.25;22.01;99534.33;107539;1310;22494;-45
2023/07/09 15:35:35;;;;;;;1.00;1.00;;;;;;;30.28;21.88;99528.21;107552;1310;22446;-47
2023/07/09 15:38:12;;;;;;;1.70;1.60;;;;;;;30.26;22.06;99524.30;107547;1310;22572;-50
2023/07/09 15:40:37;;;;;;;;;;;;;;;30.22;22.09;99521.33;107558;1310;22581;-49
2023/07/09 15:43:08;;;;;;;3.70;1.10;;;;;;;30.17;22.31;99517.87;107547;1310;22344;-48
2023/07/09 15:45:40;;;;;;;1.50;1.40;;;;;;;30.24;22.15;99520.39;107542;1310;22250;-47
2023/07/09 15:48:05;;;;;;;1.50;1.10;;;;;;;30.24;22.01;99519.63;107547;1310;23351;-47
2023/07/09 15:50:32;;;;;;;1.00;1.00;;;;;;;30.09;22.02;99523.98;107497;1311;22239;-52
2023/07/09 15:53:00;;;;;;;1.10;1.10;;;;;;;30.05;22.07;99522.14;107246;1311;22398;-49
2023/07/09 15:55:27;;;;;;;1.30;1.20;;;;;;;30.07;21.95;99523.79;107500;1311;22665;-48
2023/07/09 15:57:54;;;;;;;0.90;0.90;;;;;;;30.01;22.21;99518.56;107458;1311;22298;-48
2023/07/09 16:00:25;;;;;;;1.50;1.20;;;;;;;30.05;22.44;99516.45;107482;1311;22467;-50
2023/07/09 16:02:51;;;;;;;2.80;1.20;;;;;;;30.07;22.29;99519.70;107485;1311;22272;-49
2023/07/09 16:05:23;;;;;;;1.30;1.20;;;;;;;30.03;22.44;99519.05;107470;1311;22790;-47
2023/07/09 16:07:49;;;;;;;0.90;0.90;;;;;;;30.03;22.42;99522.57;107495;1311;23128;-46
2023/07/09 16:10:15;;;;;;;1.30;1.20;;;;;;;29.99;22.80;99520.22;107495;1311;23044;-49
2023/07/09 16:12:40;;;;;;;3.20;1.10;;;;;;;30.04;22.73;99520.28;107482;1311;22253;-47
2023/07/09 16:15:09;;;;;;;2.90;1.40;;;;;;;30.03;22.80;99520.19;107490;1311;22441;-46
2023/07/09 16:17:34;;;;;;;2.10;1.20;;;;;;;30.05;22.83;99518.86;107489;1311;22243;-48
2023/07/09 16:20:00;;;;;;;2.70;0.90;;;;;;;29.98;22.91;99522.89;107457;1310;22494;-52
2023/07/09 16:22:27;;;;;;;2.10;1.10;;;;;;;29.96;22.94;99523.17;107495;1310;22307;-47
2023/07/09 16:24:52;;;;;;;2.70;1.00;;;;;;;29.83;23.01;99522.80;107291;1312;22259;-49
2023/07/09 16:27:18;;;;;;;15.00;2.20;;;;;;;29.73;23.15;99518.80;107422;1310;22425;-46
2023/07/09 16:29:43;;;;;;;2.60;1.10;;;;;;;29.81;23.38;99517.92;107495;1311;22281;-53
2023/07/09 16:32:09;;;;;;;2.10;1.30;;;;;;;29.83;23.28;99514.02;107479;1311;23383;-51
2023/07/09 16:34:35;;;;;;;1.70;1.10;;;;;;;29.72;23.09;99513.42;107499;1310;22517;-47
2023/07/09 16:37:01;;;;;;;2.30;1.00;;;;;;;29.64;23.07;99509.55;107483;1311;22244;-47
2023/07/09 16:39:40;;;;;;;2.70;1.10;;;;;;;29.60;23.31;99509.88;107510;1310;22255;-48
2023/07/09 16:42:10;;;;;;;3.10;1.30;;;;;;;29.58;23.57;99504.98;107489;1311;23122;-47
2023/07/09 16:44:36;;;;;;;2.70;0.90;;;;;;;29.55;23.73;99502.30;107488;1310;22263;-49
2023/07/09 16:47:01;;;;;;;2.50;1.30;;;;;;;29.44;23.72;99505.35;107486;1311;22442;-48
2023/07/09 16:49:29;;;;;;;1.00;0.80;;;;;;;29.39;23.86;99506.71;107488;1310;22350;-52
2023/07/09 16:51:57;;;;;;;1.90;1.10;;;;;;;29.37;23.77;99507.70;107465;1300;22277;-47
2023/07/09 16:54:22;;;;;;;1.80;1.00;;;;;;;29.32;23.76;99504.55;107378;1310;22479;-48
2023/07/09 16:56:48;;;;;;;2.60;1.20;;;;;;;29.24;23.83;99502.67;107488;1311;22455;-51
2023/07/09 16:59:13;;;;;;;1.60;1.00;;;;;;;29.22;24.05;99502.26;107484;1309;22338;-53
2023/07/09 17:01:39;;;;;;;2.90;1.20;;;;;;;29.15;24.12;99503.30;107684;1309;22379;-51
2023/07/09 17:04:19;;;;;;;1.20;1.10;;;;;;;29.07;24.23;99504.90;107698;1309;22427;-45
2023/07/09 17:06:45;;;;;;;1.40;1.10;;;;;;;29.02;24.30;99508.23;107701;1309;22282;-51
2023/07/09 17:09:10;;;;;;;3.10;1.20;;;;;;;29.01;24.28;99508.04;107678;1309;22251;-47
2023/07/09 17:11:36;;;;;;;3.50;1.10;;;;;;;29.02;24.39;99511.66;107677;1309;22434;-50
2023/07/09 17:14:01;;;;;;;1.10;1.00;;;;;;;29.02;24.54;99512.20;107189;1309;22899;-48
2023/07/09 17:16:27;;;;;;;1.90;1.40;;;;;;;29.00;24.88;99510.78;107656;1309;22945;-48
2023/07/09 17:18:52;;;;;;;1.20;1.10;;;;;;;28.99;24.94;99510.98;107664;1309;22277;-49
2023/07/09 17:21:17;;;;;;;1.80;1.50;;;;;;;28.96;25.23;99513.04;107686;1309;22479;-51
2023/07/09 17:23:43;;;;;;;2.30;0.90;;;;;;;28.90;24.87;99515.67;107673;1309;22381;-48
2023/07/09 17:26:09;;;;;;;3.10;1.00;;;;;;;28.83;24.97;99518.42;107686;1309;22445;-49
2023/07/09 17:28:35;;;;;;;2.60;1.60;;;;;;;28.77;25.06;99518.84;107671;1309;22337;-50
2023/07/09 17:31:01;;;;;;;4.80;1.10;;;;;;;28.72;25.52;99518.97;107669;1309;22501;-49
2023/07/09 17:33:27;;;;;;;2.00;1.20;;;;;;;28.70;25.46;99516.08;107565;1295;23528;-49
2023/07/09 17:35:54;;;;;;;1.10;1.00;;;;;;;28.61;25.30;99521.29;107674;1309;22256;-48
2023/07/09 17:38:22;;;;;;;2.70;1.20;;;;;;;28.49;25.39;99524.25;107692;1309;22247;-56
2023/07/09 17:40:49;;;;;;;4.00;1.20;;;;;;;28.41;25.42;99523.06;107686;1309;22266;-49
2023/07/09 17:43:24;;;;;;;2.10;1.30;;;;;;;28.33;25.60;99521.91;107686;1309;22237;-45
2023/07/09 17:45:51;;;;;;;2.20;1.50;;;;;;;28.28;25.89;99523.16;107671;1309;22858;-48
2023/07/09 17:48:20;;;;;;;7.90;2.20;;;;;;;28.22;26.30;99520.89;107691;1309;22257;-51
2023/07/09 17:50:45;;;;;;;2.10;1.20;;;;;;;28.21;26.90;99516.27;107664;1309;22187;-51
2023/07/09 17:53:19;;;;;;;2.00;1.20;;;;;;;28.19;26.59;99515.08;107676;1309;22437;-45
2023/07/09 17:55:45;;;;;;;2.10;1.40;;;;;;;28.14;26.51;99510.97;107586;1309;22269;-51
2023/07/09 17:58:13;;;;;;;2.60;1.10;;;;;;;28.09;26.48;99514.24;107687;1309;22445;-49
2023/07/09 18:00:38;;;;;;;3.20;1.40;;;;;;;28.01;27.17;99516.54;107682;1309;22931;-44
2023/07/09 18:03:11;;;;;;;2.80;1.40;;;;;;;27.95;27.23;99519.09;107682;1309;22270;-51
2023/07/09 18:05:37;;;;;;;2.50;1.40;;;;;;;27.89;26.96;99521.05;107670;1309;22429;-49
2023/07/09 18:08:05;;;;;;;3.00;1.20;;;;;;;27.82;26.87;99519.84;107690;1309;23200;-46
2023/07/09 18:10:34;;;;;;;1.60;1.40;;;;;;;27.74;27.02;99519.63;107698;1309;22475;-47
2023/07/09 18:13:05;;;;;;;2.60;1.40;;;;;;;27.60;27.04;99520.30;107689;1309;23216;-49
2023/07/09 18:15:33;;;;;;;2.00;1.10;;;;;;;27.51;27.08;99524.83;107679;1309;23124;-44
2023/07/09 18:17:59;;;;;;;5.00;1.30;;;;;;;27.47;27.33;99525.55;107495;1309;22591;-48
2023/07/09 18:20:25;;;;;;;2.10;1.50;;;;;;;27.39;27.54;99520.89;107688;1309;22250;-45
2023/07/09 18:22:51;;;;;;;7.00;1.80;;;;;;;27.34;27.69;99517.74;107573;1309;22267;-48
2023/07/09 18:25:21;;;;;;;3.00;1.30;;;;;;;27.32;27.51;99515.10;107688;1309;22191;-49
2023/07/09 18:27:50;;;;;;;3.50;1.30;;;;;;;27.26;27.73;99516.00;107688;1309;22239;-46
2023/07/09 18:30:36;;;;;;;3.80;1.30;;;;;;;27.23;28.15;99517.36;107700;1309;22383;-51
2023/07/09 18:33:03;;;;;;;5.80;1.50;;;;;;;27.18;28.35;99516.09;107671;1309;22244;-50
2023/07/09 18:35:35;;;;;;;2.10;1.50;;;;;;;27.13;28.41;99517.36;107674;1309;22557;-47
2023/07/09 18:38:06;;;;;;;8.70;1.50;;;;;;;27.07;28.63;99521.91;107687;1309;22491;-44
2023/07/09 18:40:36;;;;;;;6.80;1.70;;;;;;;27.01;28.79;99520.67;107682;1309;22409;-49
2023/07/09 18:43:11;;;;;;;2.30;1.20;;;;;;;26.95;28.77;99522.98;107693;1309;22237;-49
2023/07/09 18:45:36;;;;;;;2.10;1.30;;;;;;;26.91;28.99;99521.02;107587;1309;22285;-49
2023/07/09 18:48:12;;;;;;;1.80;1.10;;;;;;;26.88;29.00;99522.27;107688;1309;23466;-47
2023/07/09 18:50:37;;;;;;;2.70;1.60;;;;;;;26.80;29.58;99517.04;107696;1309;22598;-48
2023/07/09 18:53:02;;;;;;;2.00;1.20;;;;;;;26.75;29.51;99518.08;107669;1309;22288;-49
2023/07/09 18:55:30;;;;;;;2.10;1.20;;;;;;;26.68;29.32;99517.39;107704;1309;22265;-47
2023/07/09 18:57:56;;;;;;;1.80;1.30;;;;;;;26.61;29.33;99514.80;107693;1309;22274;-45
2023/07/09 19:00:23;;;;;;;5.60;1.40;;;;;;;26.55;29.70;99518.08;107694;1309;22445;-46
2023/07/09 19:02:54;;;;;;;;;;;;;;;26.49;29.74;99524.86;107365;1309;22572;-46
2023/07/09 19:05:25;;;;;;;5.30;1.30;;;;;;;26.38;30.01;99526.84;106955;1309;22450;-49
2023/07/09 19:07:53;;;;;;;3.80;1.30;;;;;;;26.31;30.09;99525.76;107683;1309;22244;-50
2023/07/09 19:10:21;;;;;;;3.30;1.40;;;;;;;26.25;30.31;99525.03;107714;1309;22474;-47
2023/07/09 19:12:49;;;;;;;3.00;1.30;;;;;;;26.20;30.33;99520.77;107697;1309;23055;-48
2023/07/09 19:15:15;;;;;;;1.60;1.50;;;;;;;26.14;30.69;99518.08;107710;1309;22454;-51
2023/07/09 19:17:41;;;;;;;2.50;1.40;;;;;;;26.07;30.71;99517.71;107574;1309;22257;-52
2023/07/09 19:20:16;;;;;;;3.70;1.40;;;;;;;26.00;31.13;99521.95;107696;1309;22813;-45
2023/07/09 19:22:41;;;;;;;2.70;1.70;;;;;;;25.93;31.65;99525.29;107702;1309;22979;-47
2023/07/09 19:25:24;;;;;;;4.80;1.70;;;;;;;25.87;31.38;99531.14;107675;1309;22360;-47
2023/07/09 19:27:51;;;;;;;5.90;1.60;;;;;;;25.80;31.43;99531.41;107704;1309;22949;-45
2023/07/09 19:30:18;;;;;;;;;;;;;;;25.71;32.08;99528.77;107697;1309;23236;-48
2023/07/09 19:32:47;;;;;;;3.90;1.60;;;;;;;25.63;31.94;99529.85;107695;1309;22257;-46
2023/07/09 19:35:22;;;;;;;3.60;1.90;;;;;;;25.55;32.31;99528.70;107693;1309;23158;-48
2023/07/09 19:37:48;;;;;;;4.70;1.70;;;;;;;25.51;32.03;99530.95;107670;1309;23137;-47
2023/07/09 19:40:15;;;;;;;4.20;1.90;;;;;;;25.45;32.22;99531.31;107701;1309;22232;-52
2023/07/09 19:42:40;;;;;;;2.20;1.80;;;;;;;25.39;32.10;99528.55;107695;1309;22060;-48
2023/07/09 19:45:10;;;;;;;4.90;2.30;;;;;;;25.36;32.07;99532.38;107699;1309;22299;-48
2023/07/09 19:47:36;;;;;;;5.30;1.90;;;;;;;25.33;32.34;99536.48;107714;1309;22970;-47
2023/07/09 19:50:16;;;;;;;4.30;2.00;;;;;;;25.30;32.08;99540.07;107691;1309;22340;-48
2023/07/09 19:52:42;;;;;;;8.10;1.90;;;;;;;25.24;31.88;99538.83;107733;1309;23041;-44
2023/07/09 19:55:15;;;;;;;;;;;;;;;25.18;31.83;99537.35;107727;1309;22860;-48
2023/07/09 19:57:41;;;;;;;2.90;1.80;;;;;;;25.12;31.81;99534.06;107698;1309;23204;-47
2023/07/09 20:00:08;;;;;;;1.90;1.50;;;;;;;25.09;32.00;99537.89;107693;1309;22315;-52
2023/07/09 20:02:34;;;;;;;7.30;2.00;;;;;;;25.05;32.21;99538.30;107703;1309;22257;-48
2023/07/09 20:05:01;;;;;;;1.70;1.60;;;;;;;25.02;32.23;99539.21;107544;1309;22500;-45
2023/07/09 20:07:28;;;;;;;4.40;1.60;;;;;;;24.98;32.23;99543.23;107701;1309;22159;-49
2023/07/09 20:09:53;;;;;;;3.10;1.80;;;;;;;24.93;32.16;99544.54;107706;1309;22320;-48
2023/07/09 20:12:20;;;;;;;2.40;1.80;;;;;;;24.86;32.62;99543.45;107676;1309;22437;-48
2023/07/09 20:14:47;;;;;;;4.00;2.10;;;;;;;24.83;32.88;99543.29;107699;1309;22218;-47
2023/07/09 20:17:15;;;;;;;2.90;1.50;;;;;;;24.79;32.50;99546.55;107872;1308;22209;-48
2023/07/09 20:19:41;;;;;;;7.20;1.80;;;;;;;24.72;32.56;99544.28;107851;1308;22324;-48
2023/07/09 20:22:24;;;;;;;7.40;1.70;;;;;;;24.65;33.10;99543.88;107881;1308;22466;-48
2023/07/09 20:24:49;;;;;;;5.00;1.70;;;;;;;24.58;33.38;99544.45;107691;1308;23287;-47
2023/07/09 20:27:17;;;;;;;7.50;2.00;;;;;;;24.54;33.68;99548.11;107837;1308;22329;-48
2023/07/09 20:29:44;;;;;;;7.20;2.10;;;;;;;24.48;34.05;99547.80;107852;1308;22239;-47
2023/07/09 20:32:16;;;;;;;3.30;2.10;;;;;;;24.41;34.34;99548.01;107879;1308;22314;-50
2023/07/09 20:34:43;;;;;;;5.40;2.30;;;;;;;24.36;34.02;99548.44;107920;1308;22240;-45
2023/07/09 20:37:10;;;;;;;11.40;2.30;;;;;;;24.32;34.14;99550.85;107871;1308;22260;-46
2023/07/09 20:39:39;;;;;;;6.20;1.90;;;;;;;24.26;34.76;99553.46;107857;1308;22237;-47
2023/07/09 20:42:05;;;;;;;6.90;2.20;;;;;;;24.21;35.00;99555.65;107866;1308;22324;-48
2023/07/09 20:44:42;;;;;;;3.20;1.70;;;;;;;24.16;35.15;99559.04;107860;1308;22362;-47
2023/07/09 20:47:19;;;;;;;5.30;2.10;;;;;;;24.09;35.55;99561.74;107852;1308;22240;-47
2023/07/09 20:49:45;;;;;;;;;;;;;;;24.02;36.06;99563.38;107879;1308;22493;-50
2023/07/09 20:52:10;;;;;;;6.10;2.90;;;;;;;23.94;36.27;99563.52;107882;1308;22256;-48
2023/07/09 20:54:39;;;;;;;8.60;2.30;;;;;;;23.90;36.01;99563.61;107850;1308;22276;-51
2023/07/09 20:57:15;;;;;;;6.00;2.20;;;;;;;23.87;35.96;99564.12;107859;1308;22324;-45
2023/07/09 20:59:40;;;;;;;4.50;1.80;;;;;;;23.84;36.10;99563.53;107861;1308;23066;-44
2023/07/09 21:02:17;;;;;;;7.40;2.10;;;;;;;23.80;36.47;99565.11;107867;1308;22603;-53
2023/07/09 21:04:43;;;;;;;2.40;1.90;;;;;;;23.77;35.86;99564.22;107868;1308;22246;-47
2023/07/09 21:07:10;;;;;;;4.60;1.60;;;;;;;23.72;35.89;99563.27;107847;1308;22353;-45
2023/07/09 21:09:35;;;;;;;7.80;1.80;;;;;;;23.72;35.96;99561.86;107843;1308;22439;-47
2023/07/09 21:12:07;;;;;;;2.80;2.00;;;;;;;23.71;36.51;99563.45;107857;1308;22255;-47
2023/07/09 21:14:33;;;;;;;3.80;2.20;;;;;;;23.69;36.36;99564.50;107591;1308;22263;-45
2023/07/09 21:16:58;;;;;;;4.40;2.10;;;;;;;23.67;36.05;99568.05;107843;1308;22451;-46
2023/07/09 21:19:36;;;;;;;2.40;2.00;;;;;;;23.66;36.64;99570.34;107847;1308;22273;-47
2023/07/09 21:22:03;;;;;;;4.10;1.60;;;;;;;23.63;36.56;99571.02;107561;1308;22988;-44
2023/07/09 21:24:36;;;;;;;4.10;2.10;;;;;;;23.59;36.91;99571.84;107862;1308;22246;-45
2023/07/09 21:27:02;;;;;;;4.30;1.80;;;;;;;23.54;37.21;99571.13;107869;1308;22268;-46
2023/07/09 21:29:28;;;;;;;4.50;2.00;;;;;;;23.49;36.55;99571.58;107846;1308;22458;-48
2023/07/09 21:32:00;;;;;;;2.20;1.60;;;;;;;23.44;37.01;99568.92;107819;1308;23144;-47
2023/07/09 21:34:28;;;;;;;3.70;1.90;;;;;;;23.40;37.00;99566.80;107852;1308;22355;-49
2023/07/09 21:36:54;;;;;;;5.70;1.80;;;;;;;23.37;37.17;99568.07;107872;1308;22268;-47
2023/07/09 21:39:22;;;;;;;2.50;2.00;;;;;;;23.34;37.45;99576.54;107856;1308;22387;-45
2023/07/09 21:41:53;;;;;;;5.00;1.70;;;;;;;23.31;37.38;99580.11;107865;1308;22231;-46
2023/07/09 21:44:20;;;;;;;2.30;2.10;;;;;;;23.25;37.94;99578.94;107898;1308;23344;-46
2023/07/09 21:46:47;;;;;;;3.40;2.20;;;;;;;23.20;37.84;99583.79;107854;1308;22443;-48
2023/07/09 21:49:18;;;;;;;3.90;2.10;;;;;;;23.18;38.31;99587.77;107844;1308;22441;-48
2023/07/09 21:51:45;;;;;;;8.90;2.00;;;;;;;23.14;38.33;99587.45;107535;1308;22883;-50
2023/07/09 21:54:33;;;;;;;13.20;1.90;;;;;;;23.11;38.11;99586.51;107870;1308;22473;-44
2023/07/09 21:56:59;;;;;;;3.20;1.80;;;;;;;23.07;38.09;99588.83;107858;1308;22899;-44
2023/07/09 21:59:26;;;;;;;2.80;1.80;;;;;;;23.03;37.93;99587.48;107865;1308;22416;-47
2023/07/09 22:01:53;;;;;;;;;;;;;;;22.98;38.40;99584.88;107850;1308;22464;-46
2023/07/09 22:04:28;;;;;;;4.80;1.80;;;;;;;22.93;38.97;99582.95;107885;1308;23665;-45
2023/07/09 22:06:53;;;;;;;3.10;1.60;;;;;;;22.88;38.99;99579.48;107850;1308;22236;-47
2023/07/09 22:09:19;;;;;;;2.60;2.00;;;;;;;22.86;38.86;99580.47;107850;1308;22422;-49
2023/07/09 22:11:50;;;;;;;2.10;1.90;;;;;;;22.82;38.90;99580.65;107877;1308;23151;-49
2023/07/09 22:14:20;;;;;;;2.10;1.90;;;;;;;22.79;39.18;99578.95;107843;1308;22420;-49
2023/07/09 22:16:46;;;;;;;1.70;1.60;;;;;;;22.76;39.07;99579.60;107868;1308;22965;-46
2023/07/09 22:19:12;;;;;;;4.00;1.60;;;;;;;22.75;39.20;99581.50;107870;1308;22423;-44
2023/07/09 22:21:38;;;;;;;6.50;1.80;;;;;;;22.74;39.30;99584.54;107869;1308;22896;-48
2023/07/09 22:24:04;;;;;;;5.00;1.90;;;;;;;22.71;39.85;99588.08;107850;1308;22391;-49
2023/07/09 22:26:31;;;;;;;2.70;1.80;;;;;;;22.67;39.33;99585.27;107855;1308;22364;-47
2023/07/09 22:28:58;;;;;;;9.30;2.00;;;;;;;22.65;39.52;99590.23;107866;1308;22469;-47
2023/07/09 22:31:25;;;;;;;3.60;2.00;;;;;;;22.63;39.66;99589.02;107863;1308;22431;-48
2023/07/09 22:33:51;;;;;;;4.60;1.80;;;;;;;22.61;39.90;99585.55;107822;1308;22299;-48
2023/07/09 22:36:16;;;;;;;3.00;2.00;;;;;;;22.60;39.92;99584.41;107877;1308;22408;-47
2023/07/09 22:38:42;;;;;;;5.40;1.70;;;;;;;22.58;39.86;99584.19;107853;1308;22365;-48
2023/07/09 22:41:07;;;;;;;6.00;2.10;;;;;;;22.54;40.36;99585.63;107839;1308;22157;-48
2023/07/09 22:43:33;;;;;;;2.60;1.90;;;;;;;22.51;40.30;99586.31;107831;1300;22400;-51
2023/07/09 22:45:59;;;;;;;2.60;1.70;;;;;;;22.47;40.54;99584.70;107843;1308;22227;-45
2023/07/09 22:48:24;;;;;;;3.00;1.80;;;;;;;22.43;40.91;99579.58;107856;1308;22415;-51
2023/07/09 22:50:54;;;;;;;3.00;1.70;;;;;;;22.39;40.87;99576.79;107841;1308;22993;-49
2023/07/09 22:53:21;;;;;;;5.40;2.00;;;;;;;22.36;41.01;99578.31;107863;1308;22257;-47
2023/07/09 22:55:48;;;;;;;2.30;2.10;;;;;;;22.34;40.71;99581.96;107865;1308;22230;-48
2023/07/09 22:58:15;;;;;;;;;;;;;;;22.31;40.65;99583.11;107725;1308;22530;-44
2023/07/09 23:01:00;;;;;;;4.70;1.60;;;;;;;22.29;40.96;99586.55;107845;1308;23007;-48
2023/07/09 23:03:37;;;;;;;5.40;2.00;;;;;;;22.28;41.29;99582.05;107844;1308;22899;-49
2023/07/09 23:06:22;;;;;;;;;;;;;;;22.26;41.10;99582.90;107868;1308;22456;-48
2023/07/09 23:08:49;;;;;;;3.70;1.80;;;;;;;22.22;41.31;99583.55;107867;1308;22231;-47
2023/07/09 23:11:36;;;;;;;2.10;1.90;;;;;;;22.21;41.25;99584.23;107823;1308;22321;-50
2023/07/09 23:14:02;;;;;;;6.90;1.90;;;;;;;22.17;41.08;99586.91;107871;1308;22236;-49
2023/07/09 23:16:30;;;;;;;7.90;2.30;;;;;;;22.17;41.06;99588.74;107827;1308;22226;-47
2023/07/09 23:19:01;;;;;;;4.60;1.70;;;;;;;22.14;41.28;99586.88;107844;1308;22400;-44
2023/07/09 23:21:27;;;;;;;3.40;1.80;;;;;;;22.12;41.76;99582.52;107840;1308;22210;-47
2023/07/09 23:23:58;;;;;;;2.30;2.10;;;;;;;22.10;41.72;99581.06;107845;1308;22274;-46
2023/07/09 23:26:29;;;;;;;2.10;1.70;;;;;;;22.06;41.91;99583.72;107469;1308;22305;-47
2023/07/09 23:28:55;;;;;;;7.10;2.20;;;;;;;22.03;41.81;99583.17;107826;1308;22229;-50
2023/07/09 23:31:26;;;;;;;4.80;1.70;;;;;;;21.97;41.88;99578.97;107843;1308;22251;-51
2023/07/09 23:33:53;;;;;;;3.40;1.90;;;;;;;21.94;42.27;99576.95;107877;1308;22236;-51
2023/07/09 23:36:18;;;;;;;3.70;1.60;;;;;;;21.90;42.41;99579.46;107863;1308;22472;-47
2023/07/09 23:38:44;;;;;;;6.40;1.80;;;;;;;21.85;42.77;99575.84;107824;1308;22975;-48
2023/07/09 23:41:19;;;;;;;1.70;1.60;;;;;;;21.82;42.88;99571.25;107858;1308;23070;-46
2023/07/09 23:43:45;;;;;;;3.50;1.80;;;;;;;21.78;42.80;99567.19;107872;1308;22256;-48
2023/07/09 23:46:12;;;;;;;2.10;1.60;;;;;;;21.76;42.59;99568.30;107841;1308;22474;-47
2023/07/09 23:48:37;;;;;;;2.20;2.00;;;;;;;21.75;42.87;99569.52;107834;1308;23170;-51
2023/07/09 23:51:06;;;;;;;2.60;1.90;;;;;;;21.74;42.87;99566.52;107849;1308;22245;-47
2023/07/09 23:53:33;;;;;;;1.80;1.70;;;;;;;21.72;43.12;99564.20;107856;1308;22264;-48
2023/07/09 23:56:21;;;;;;;2.90;1.60;;;;;;;21.70;43.27;99558.78;107873;1308;22316;-47
2023/07/09 23:58:47;;;;;;;2.40;1.80;;;;;;;21.66;43.63;99560.65;107822;1308;22242;-50
